Time;durP1;ratioP1;P1;durP2;ratioP2;P2;SDS_P1;SDS_P2;PMS_P1;PMS_P2;Temp;Humidity;BMP_temperature;BMP_pressure;BME280_temperature;BME280_humidity;BME280_pressure;Samples;Min_cycle;Max_cycle;Signal;HPM_P1;HPM_P2
2022/12/31 00:00:13;;;;;;;8.18;4.63;;;;;;;7.41;58.78;96167.88;4953304;29;20200;-63
2022/12/31 00:02:40;;;;;;;2.43;2.23;;;;;;;7.41;58.48;96166.03;4952708;29;20239;-63
2022/12/31 00:05:08;;;;;;;5.07;4.57;;;;;;;7.35;58.53;96155.63;4952873;29;20487;-63
2022/12/31 00:07:35;;;;;;;3.22;2.92;;;;;;;7.44;58.83;96149.19;4953176;29;20465;-63
2022/12/31 00:10:02;;;;;;;1.90;1.73;;;;;;;7.57;58.73;96149.16;4951973;29;20321;-64
2022/12/31 00:12:29;;;;;;;2.00;1.90;;;;;;;7.54;58.91;96149.53;4952872;29;20196;-64
2022/12/31 00:14:55;;;;;;;1.58;1.48;;;;;;;7.35;59.44;96140.00;4953012;29;20535;-62
2022/12/31 00:17:22;;;;;;;3.83;3.53;;;;;;;7.44;59.24;96144.78;4952848;29;20203;-63
2022/12/31 00:19:49;;;;;;;13.73;7.57;;;;;;;7.51;59.06;96144.75;4953277;29;20239;-63
2022/12/31 00:22:16;;;;;;;4.77;4.30;;;;;;;7.59;58.37;96157.56;4951895;28;20471;-62
2022/12/31 00:24:44;;;;;;;13.10;10.47;;;;;;;7.64;58.15;96152.53;4953215;29;20485;-64
2022/12/31 00:27:10;;;;;;;8.63;7.93;;;;;;;7.47;58.25;96159.19;4952536;29;20798;-64
2022/12/31 00:29:37;;;;;;;13.93;7.73;;;;;;;7.10;58.94;96158.06;4952508;29;20828;-64
2022/12/31 00:32:04;;;;;;;9.70;7.10;;;;;;;7.02;58.83;96146.09;4953000;29;20773;-64
2022/12/31 00:34:34;;;;;;;6.20;4.40;;;;;;;7.17;58.83;96170.09;4952645;29;20443;-64
2022/12/31 00:37:00;;;;;;;8.52;5.40;;;;;;;7.31;58.15;96164.88;4951703;29;20259;-64
2022/12/31 00:39:27;;;;;;;8.73;5.47;;;;;;;7.29;57.79;96179.91;4952774;29;20282;-64
2022/12/31 00:41:54;;;;;;;4.85;4.13;;;;;;;7.08;59.07;96181.75;4952225;29;20491;-63
2022/12/31 00:44:21;;;;;;;4.20;3.83;;;;;;;7.25;58.56;96186.53;4945366;29;20782;-64
2022/12/31 00:46:48;;;;;;;2.60;2.40;;;;;;;7.34;58.05;96190.53;4950565;29;20455;-64
2022/12/31 00:49:15;;;;;;;3.15;2.95;;;;;;;7.38;57.83;96184.72;4952273;29;20724;-64
2022/12/31 00:51:41;;;;;;;1.58;1.50;;;;;;;7.42;57.72;96180.69;4952370;29;20211;-64
2022/12/31 00:54:09;;;;;;;4.33;3.10;;;;;;;7.43;58.33;96178.88;4952117;29;20227;-63
2022/12/31 00:56:35;;;;;;;3.97;3.33;;;;;;;7.29;58.47;96187.72;4951908;29;20452;-65
2022/12/31 00:59:03;;;;;;;3.33;2.75;;;;;;;7.30;58.34;96184.13;4951939;29;20670;-64
2022/12/31 01:01:35;;;;;;;4.45;2.17;;;;;;;7.26;58.70;96188.94;4951563;29;20255;-63
2022/12/31 01:04:08;;;;;;;6.20;5.30;;;;;;;7.09;58.43;96178.16;4951477;28;20286;-63
2022/12/31 01:06:36;;;;;;;10.18;5.07;;;;;;;7.24;58.01;96192.75;4951989;29;20450;-63
2022/12/31 01:09:04;;;;;;;4.43;4.00;;;;;;;7.18;58.10;96197.78;4951682;29;20251;-64
2022/12/31 01:11:31;;;;;;;15.50;4.40;;;;;;;7.02;58.49;96190.38;4951536;29;20286;-63
2022/12/31 01:14:24;;;;;;;8.63;4.03;;;;;;;6.98;58.28;96194.38;4951326;29;20451;-63
2022/12/31 01:16:53;;;;;;;0.90;0.90;;;;;;;7.10;58.43;96205.78;4948291;29;20509;-63
2022/12/31 01:19:22;;;;;;;1.25;1.05;;;;;;;7.00;58.63;96210.63;4952199;29;20203;-63
2022/12/31 01:21:50;;;;;;;6.55;2.00;;;;;;;6.98;59.08;96202.22;4953339;29;20228;-64
2022/12/31 01:24:18;;;;;;;7.75;3.05;;;;;;;6.93;58.38;96203.81;4952178;29;20295;-63
2022/12/31 01:26:45;;;;;;;2.72;2.22;;;;;;;6.86;59.52;96203.78;4951940;29;20262;-63
2022/12/31 01:29:15;;;;;;;2.22;2.05;;;;;;;6.87;58.69;96205.41;4951768;29;20196;-63
2022/12/31 01:31:42;;;;;;;1.38;1.25;;;;;;;6.86;59.49;96198.59;4951096;29;20208;-63
2022/12/31 01:34:09;;;;;;;2.17;1.98;;;;;;;6.78;60.00;96201.41;4950824;28;20199;-62
2022/12/31 01:36:37;;;;;;;2.55;2.35;;;;;;;7.04;59.18;96205.81;4951431;29;20299;-64
2022/12/31 01:39:06;;;;;;;3.35;3.03;;;;;;;7.12;58.97;96203.78;4951199;29;20204;-63
2022/12/31 01:41:35;;;;;;;0.73;0.73;;;;;;;6.63;60.39;96203.38;4950583;29;20239;-64
2022/12/31 01:44:11;;;;;;;2.58;1.15;;;;;;;6.55;60.85;96211.38;4951441;29;20192;-64
2022/12/31 01:46:39;;;;;;;4.20;2.80;;;;;;;6.63;60.31;96219.00;4950790;29;20207;-63
2022/12/31 01:49:38;;;;;;;3.17;2.28;;;;;;;6.09;61.93;96215.69;4951163;29;20232;-63
2022/12/31 01:52:18;;;;;;;1.52;1.42;;;;;;;6.46;60.88;96220.38;4939898;29;20255;-63
2022/12/31 01:54:54;;;;;;;3.78;1.00;;;;;;;6.22;62.09;96215.72;4950556;29;20650;-64
2022/12/31 01:57:22;;;;;;;1.30;0.90;;;;;;;6.45;61.27;96208.38;4951327;29;20210;-62
2022/12/31 01:59:50;;;;;;;4.28;3.42;;;;;;;6.60;60.53;96209.00;4950691;29;20233;-63
2022/12/31 02:02:17;;;;;;;1.05;0.70;;;;;;;6.66;60.08;96210.00;4951073;29;20227;-63
2022/12/31 02:04:45;;;;;;;46.30;4.40;;;;;;;6.97;59.72;96211.00;4950579;29;20207;-62
2022/12/31 02:07:12;;;;;;;0.65;0.65;;;;;;;6.88;59.39;96208.78;4950665;29;20270;-63
2022/12/31 02:09:41;;;;;;;1.25;1.17;;;;;;;6.72;60.23;96212.63;4951463;29;20204;-64
2022/12/31 02:12:08;;;;;;;0.30;0.30;;;;;;;6.82;59.74;96213.03;4950561;29;20200;-63
2022/12/31 02:14:40;;;;;;;1.95;1.55;;;;;;;6.81;60.04;96221.84;4950885;29;20663;-63
2022/12/31 02:17:16;;;;;;;1.30;1.20;;;;;;;6.93;59.44;96225.44;4951210;29;20593;-63
2022/12/31 02:20:05;;;;;;;1.42;1.35;;;;;;;6.90;59.64;96215.44;4951172;29;20199;-63
2022/12/31 02:22:44;;;;;;;1.30;1.20;;;;;;;6.97;60.23;96210.22;4951450;29;20258;-64
2022/12/31 02:25:35;;;;;;;1.35;1.23;;;;;;;7.03;60.08;96218.03;4951230;29;20299;-63
2022/12/31 02:28:35;;;;;;;0.28;0.28;;;;;;;7.19;59.26;96215.00;4951049;29;20616;-65
2022/12/31 02:31:20;;;;;;;1.98;0.95;;;;;;;7.19;59.00;96214.19;4941424;29;20291;-62
2022/12/31 02:33:55;;;;;;;0.40;0.40;;;;;;;7.32;58.65;96229.06;4950738;29;20754;-63
2022/12/31 02:36:28;;;;;;;2.17;1.42;;;;;;;7.08;59.44;96236.47;4950102;29;20663;-64
2022/12/31 02:38:57;;;;;;;1.75;1.50;;;;;;;7.20;59.02;96231.47;4933218;29;20200;-63
2022/12/31 02:44:37;;;;;;;1.13;0.50;;;;;;;7.17;58.89;96245.69;4940265;29;20270;-62
2022/12/31 02:47:15;;;;;;;1.80;1.45;;;;;;;7.23;59.76;96241.47;4951417;28;20223;-63
2022/12/31 02:49:49;;;;;;;1.42;1.33;;;;;;;7.22;59.28;96244.28;4953980;29;20200;-63
2022/12/31 02:52:42;;;;;;;1.10;0.80;;;;;;;7.29;58.91;96245.09;4954136;29;20203;-63
2022/12/31 02:55:18;;;;;;;0.82;0.82;;;;;;;7.49;58.70;96233.63;4941866;29;20195;-63
2022/12/31 02:57:56;;;;;;;1.40;1.30;;;;;;;7.46;58.55;96234.06;4953934;29;20663;-62
2022/12/31 03:03:29;;;;;;;0.22;0.22;;;;;;;7.18;58.77;96244.72;4913195;29;20243;-64
2022/12/31 03:05:57;;;;;;;1.48;1.38;;;;;;;7.42;58.66;96235.47;4912775;29;20380;-63
2022/12/31 03:08:25;;;;;;;1.35;1.30;;;;;;;7.43;57.95;96233.63;4933078;29;20212;-62
2022/12/31 03:10:52;;;;;;;1.03;0.77;;;;;;;7.19;58.96;96238.47;4953877;29;20226;-63
2022/12/31 03:13:19;;;;;;;1.58;1.35;;;;;;;7.37;58.27;96231.84;4954159;29;20452;-64
2022/12/31 03:15:47;;;;;;;0.13;0.13;;;;;;;7.25;58.69;96234.25;4954013;29;20319;-63
2022/12/31 03:22:26;;;;;;;3.28;2.45;;;;;;;7.08;58.81;96227.84;4954355;29;20311;-64
2022/12/31 03:26:43;;;;;;;1.88;1.77;;;;;;;6.93;58.92;96229.88;4953540;29;20200;-63
2022/12/31 03:29:10;;;;;;;1.17;1.17;;;;;;;6.93;58.66;96225.44;4953760;29;20220;-65
2022/12/31 03:31:36;;;;;;;11.98;2.67;;;;;;;6.88;58.76;96227.84;4954019;29;20333;-63
2022/12/31 03:34:03;;;;;;;3.38;1.70;;;;;;;6.97;58.61;96237.06;4954082;29;20191;-63
2022/12/31 03:36:31;;;;;;;5.43;3.47;;;;;;;6.81;58.31;96227.03;4954213;29;20719;-63
2022/12/31 03:38:58;;;;;;;2.75;2.55;;;;;;;6.85;58.33;96238.69;4953507;29;20200;-63
2022/12/31 03:41:24;;;;;;;2.58;2.15;;;;;;;6.61;58.60;96246.25;4953450;29;20223;-63
2022/12/31 03:43:51;;;;;;;2.53;2.30;;;;;;;6.69;58.46;96239.06;4941245;29;20286;-62
2022/12/31 03:46:18;;;;;;;9.25;5.25;;;;;;;6.76;58.55;96234.66;4952943;29;20306;-63
2022/12/31 03:48:45;;;;;;;6.80;4.32;;;;;;;6.75;58.63;96235.66;4953498;29;20763;-62
2022/12/31 03:51:12;;;;;;;9.13;5.00;;;;;;;6.69;58.40;96244.28;4953303;29;20624;-63
2022/12/31 03:53:39;;;;;;;3.70;3.42;;;;;;;6.64;58.22;96249.25;4936094;29;20204;-64
2022/12/31 03:56:06;;;;;;;19.90;4.93;;;;;;;6.59;58.58;96259.47;4953141;29;20208;-63
2022/12/31 03:58:33;;;;;;;4.93;4.35;;;;;;;6.57;58.91;96243.22;4952758;28;20290;-63
2022/12/31 04:00:59;;;;;;;4.13;3.80;;;;;;;6.58;58.74;96250.06;4952959;29;20259;-64
2022/12/31 04:03:27;;;;;;;6.38;5.72;;;;;;;6.34;59.35;96255.81;4953324;29;20234;-65
2022/12/31 04:05:54;;;;;;;2.83;2.38;;;;;;;6.33;59.13;96248.19;4953131;29;20188;-62
2022/12/31 04:08:22;;;;;;;5.75;4.55;;;;;;;6.04;60.19;96244.88;4953352;29;20223;-64
2022/12/31 04:10:49;;;;;;;3.22;2.97;;;;;;;5.95;60.45;96250.44;4953030;29;20227;-64
2022/12/31 04:13:16;;;;;;;2.90;1.73;;;;;;;6.05;60.21;96259.50;4953016;29;20200;-63
2022/12/31 04:15:43;;;;;;;3.38;2.28;;;;;;;5.99;59.89;96249.06;4953151;29;20259;-63
2022/12/31 04:18:10;;;;;;;10.35;2.15;;;;;;;6.03;59.42;96263.28;4953106;29;20574;-63
2022/12/31 04:20:37;;;;;;;3.83;2.22;;;;;;;5.92;59.60;96249.03;4952636;29;20220;-63
2022/12/31 04:23:03;;;;;;;2.47;2.28;;;;;;;6.18;59.64;96253.56;4952630;29;20309;-64
2022/12/31 04:25:31;;;;;;;5.53;3.22;;;;;;;6.07;59.67;96265.31;4953049;29;20627;-62
2022/12/31 04:27:57;;;;;;;9.45;5.35;;;;;;;6.09;59.52;96262.53;4951680;29;20195;-63
2022/12/31 04:30:24;;;;;;;4.00;3.63;;;;;;;5.94;60.22;96265.25;4935116;29;20606;-63
2022/12/31 04:32:51;;;;;;;3.67;2.60;;;;;;;5.72;60.60;96275.91;4952297;29;20255;-64
2022/12/31 04:35:18;;;;;;;5.40;4.93;;;;;;;5.84;59.83;96279.59;4952347;29;20250;-65
2022/12/31 04:37:45;;;;;;;2.70;2.13;;;;;;;5.80;59.78;96288.78;4952982;29;20227;-63
2022/12/31 04:40:12;;;;;;;2.83;2.53;;;;;;;5.85;59.40;96282.03;4952242;29;20295;-63
2022/12/31 04:42:39;;;;;;;5.00;4.60;;;;;;;5.54;60.94;96280.78;4952153;29;20218;-63
2022/12/31 04:45:06;;;;;;;3.83;3.53;;;;;;;5.62;60.49;96284.03;4951619;29;20334;-62
2022/12/31 04:47:33;;;;;;;4.88;2.40;;;;;;;5.62;60.38;96291.06;4952500;29;20204;-62
2022/12/31 04:50:00;;;;;;;10.55;5.07;;;;;;;5.64;60.25;96283.88;4952505;29;20204;-64
2022/12/31 04:52:26;;;;;;;8.88;6.18;;;;;;;5.63;60.33;96290.06;4952132;29;20278;-63
2022/12/31 04:54:53;;;;;;;7.80;4.53;;;;;;;5.65;60.33;96296.69;4951721;29;20259;-63
2022/12/31 04:57:20;;;;;;;4.70;2.70;;;;;;;5.59;59.91;96288.81;4952449;29;20200;-63
2022/12/31 04:59:47;;;;;;;9.63;8.23;;;;;;;5.51;60.23;96302.00;4952192;29;20251;-63
2022/12/31 05:02:15;;;;;;;6.75;3.08;;;;;;;5.38;60.87;96310.50;4952253;29;20352;-62
2022/12/31 05:04:42;;;;;;;4.43;4.03;;;;;;;5.26;60.93;96311.97;4951742;29;20208;-64
2022/12/31 05:07:09;;;;;;;1.92;1.83;;;;;;;4.87;62.95;96309.06;4952108;29;20287;-63
2022/12/31 05:09:35;;;;;;;5.07;4.07;;;;;;;5.00;62.47;96317.75;4951626;28;20204;-63
2022/12/31 05:12:03;;;;;;;6.10;5.50;;;;;;;4.57;63.92;96321.31;4952559;29;20210;-63
2022/12/31 05:14:29;;;;;;;4.90;4.25;;;;;;;4.41;65.03;96326.75;4951801;29;20311;-64
2022/12/31 05:16:57;;;;;;;5.95;4.38;;;;;;;4.72;63.58;96329.06;4951984;29;20997;-63
2022/12/31 05:19:24;;;;;;;2.65;2.45;;;;;;;4.99;62.68;96334.34;4952226;29;20204;-64
2022/12/31 05:24:36;;;;;;;7.82;5.22;;;;;;;4.90;62.76;96343.25;4951704;29;20212;-63
2022/12/31 05:27:03;;;;;;;6.25;4.78;;;;;;;4.94;63.30;96346.28;4951516;29;20270;-63
2022/12/31 05:29:30;;;;;;;5.40;3.72;;;;;;;4.86;63.09;96334.22;4952149;29;20254;-63
2022/12/31 05:31:56;;;;;;;2.78;2.38;;;;;;;4.83;63.83;96341.56;4951059;29;20204;-63
2022/12/31 05:34:23;;;;;;;9.00;4.55;;;;;;;4.76;64.04;96348.50;4962959;28;20574;-65
2022/12/31 05:36:50;;;;;;;1.42;1.33;;;;;;;4.92;63.67;96343.88;4952507;28;20255;-63
2022/12/31 05:39:17;;;;;;;1.65;1.55;;;;;;;4.95;63.06;96346.09;4951334;29;20286;-62
2022/12/31 05:41:44;;;;;;;4.28;1.60;;;;;;;4.73;63.66;96351.44;4951091;29;20208;-63
2022/12/31 05:44:10;;;;;;;3.60;3.25;;;;;;;4.86;63.53;96346.38;4951732;29;20236;-62
2022/12/31 05:46:37;;;;;;;5.05;3.90;;;;;;;4.82;63.09;96345.13;4950651;29;20195;-63
2022/12/31 05:49:04;;;;;;;8.82;2.33;;;;;;;4.95;62.08;96345.28;4951561;29;20211;-63
2022/12/31 05:51:31;;;;;;;3.40;3.10;;;;;;;4.83;62.12;96346.75;4951206;29;20204;-63
2022/12/31 05:53:58;;;;;;;4.75;3.03;;;;;;;4.98;62.29;96350.91;4951183;29;20644;-64
2022/12/31 05:56:24;;;;;;;2.80;2.28;;;;;;;5.00;62.19;96343.72;4951178;29;20219;-63
2022/12/31 05:58:51;;;;;;;7.97;3.40;;;;;;;5.03;62.50;96351.16;4951293;29;20727;-64
2022/12/31 06:01:18;;;;;;;2.47;2.30;;;;;;;5.03;62.60;96347.75;4951444;29;20231;-64
2022/12/31 06:03:45;;;;;;;2.03;1.77;;;;;;;5.13;62.35;96354.25;4950883;29;20215;-63
2022/12/31 06:06:12;;;;;;;7.53;5.07;;;;;;;5.18;62.34;96345.09;4950797;29;20727;-63
2022/12/31 06:08:39;;;;;;;1.58;1.48;;;;;;;5.06;62.81;96356.00;4951273;29;20196;-63
2022/12/31 06:11:06;;;;;;;2.00;1.75;;;;;;;5.18;62.63;96360.69;4951139;29;20204;-63
2022/12/31 06:13:33;;;;;;;7.72;2.80;;;;;;;5.28;62.21;96353.38;4950600;29;20295;-62
2022/12/31 06:16:07;;;;;;;0.77;0.75;;;;;;;5.23;62.64;96353.94;4951214;29;20283;-62
2022/12/31 06:18:35;;;;;;;6.30;3.60;;;;;;;5.29;62.38;96344.59;4951084;29;20745;-63
2022/12/31 06:21:03;;;;;;;6.28;2.38;;;;;;;5.29;62.17;96352.41;4950482;28;20299;-64
2022/12/31 06:23:30;;;;;;;7.38;4.65;;;;;;;5.40;61.72;96349.28;4950833;29;20286;-63
2022/12/31 06:26:01;;;;;;;1.58;0.98;;;;;;;5.55;62.29;96366.41;4950976;29;20272;-62
2022/12/31 06:28:28;;;;;;;3.25;2.42;;;;;;;5.51;62.38;96372.97;4950511;29;20200;-62
2022/12/31 06:30:59;;;;;;;4.47;2.53;;;;;;;5.41;61.67;96366.47;4950695;29;20235;-63
2022/12/31 06:33:27;;;;;;;2.97;2.53;;;;;;;5.45;61.77;96378.13;4950683;29;20226;-62
2022/12/31 06:35:58;;;;;;;0.93;0.93;;;;;;;5.46;61.89;96374.50;4950976;29;20192;-63
2022/12/31 06:38:28;;;;;;;3.53;2.22;;;;;;;5.28;61.53;96381.97;4950356;29;20211;-64
2022/12/31 06:40:56;;;;;;;10.18;4.25;;;;;;;5.46;61.25;96380.53;4950792;29;20200;-63
2022/12/31 06:43:23;;;;;;;6.43;3.58;;;;;;;5.52;61.32;96389.38;4950552;29;20250;-63
2022/12/31 06:45:49;;;;;;;2.15;1.65;;;;;;;5.80;60.65;96392.81;4950379;29;20290;-64
2022/12/31 06:48:17;;;;;;;4.00;3.30;;;;;;;5.76;60.67;96391.56;4950539;29;20210;-64
2022/12/31 06:50:44;;;;;;;4.47;4.05;;;;;;;5.91;60.58;96408.72;4950239;29;20576;-63
2022/12/31 06:53:11;;;;;;;1.90;1.80;;;;;;;6.18;59.86;96405.28;4932914;29;20200;-62
2022/12/31 06:55:38;;;;;;;2.80;2.60;;;;;;;6.16;59.41;96409.09;4949646;29;20302;-62
2022/12/31 06:58:05;;;;;;;2.33;2.15;;;;;;;6.09;59.47;96416.06;4950236;29;20187;-63
2022/12/31 07:00:32;;;;;;;4.72;4.25;;;;;;;6.04;59.90;96418.41;4951242;29;20231;-63
2022/12/31 07:03:23;;;;;;;5.93;3.58;;;;;;;5.83;60.93;96415.88;4950176;29;20220;-64
2022/12/31 07:06:13;;;;;;;3.65;2.63;;;;;;;6.06;60.59;96413.81;4948809;29;20283;-64
2022/12/31 07:08:43;;;;;;;11.23;5.38;;;;;;;6.43;61.75;96416.06;4947170;29;20275;-63
2022/12/31 07:11:09;;;;;;;3.38;3.13;;;;;;;6.66;60.04;96416.56;4946503;29;20339;-62
2022/12/31 07:14:17;;;;;;;3.22;2.13;;;;;;;6.74;59.59;96421.63;4949138;29;20196;-63
2022/12/31 07:16:59;;;;;;;2.22;2.13;;;;;;;7.11;58.88;96418.56;4914793;29;20303;-62
2022/12/31 07:19:38;;;;;;;4.43;2.40;;;;;;;7.27;58.09;96421.78;4947720;29;20199;-64
2022/12/31 07:24:58;;;;;;;3.80;3.00;;;;;;;7.11;58.72;96426.38;4950078;29;20210;-63
2022/12/31 07:27:49;;;;;;;3.40;3.13;;;;;;;7.24;58.75;96438.63;4949195;29;20675;-62
2022/12/31 07:30:16;;;;;;;2.28;2.10;;;;;;;7.32;58.94;96435.81;4949598;29;20626;-63
2022/12/31 07:32:42;;;;;;;3.70;2.92;;;;;;;7.33;58.96;96439.25;4951081;28;20204;-63
2022/12/31 07:35:46;;;;;;;3.92;3.58;;;;;;;7.54;58.43;96432.06;4953061;29;20200;-64
2022/12/31 07:38:39;;;;;;;3.72;3.42;;;;;;;7.72;58.63;96426.28;4952385;29;20212;-65
2022/12/31 07:41:22;;;;;;;7.82;5.97;;;;;;;7.85;58.13;96428.84;4923952;29;20188;-63
2022/12/31 07:44:05;;;;;;;12.15;5.82;;;;;;;7.91;58.33;96433.28;4939788;29;20294;-63
2022/12/31 07:46:56;;;;;;;4.93;3.77;;;;;;;8.05;58.20;96437.47;4952223;29;20199;-62
2022/12/31 07:49:26;;;;;;;10.02;7.30;;;;;;;8.04;58.46;96438.50;4952557;29;20486;-64
2022/12/31 07:51:53;;;;;;;5.97;5.40;;;;;;;8.11;58.07;96444.53;4952638;29;20192;-65
2022/12/31 07:54:20;;;;;;;24.57;6.73;;;;;;;8.36;58.10;96445.50;4952569;29;20447;-63
2022/12/31 07:56:48;;;;;;;4.30;4.00;;;;;;;8.46;57.75;96445.91;4952214;29;20435;-63
2022/12/31 07:59:22;;;;;;;3.60;3.30;;;;;;;8.68;56.87;96439.44;4952291;29;20522;-63
2022/12/31 08:02:12;;;;;;;4.63;3.80;;;;;;;8.72;56.79;96443.22;4952693;29;20446;-64
2022/12/31 08:05:15;;;;;;;5.40;4.70;;;;;;;8.80;56.56;96440.38;4952694;29;20495;-65
2022/12/31 08:07:44;;;;;;;5.90;5.40;;;;;;;9.01;55.72;96437.47;4892535;29;20457;-62
2022/12/31 08:10:37;;;;;;;6.90;6.30;;;;;;;9.00;55.67;96441.13;4941930;29;20454;-63
2022/12/31 08:13:09;;;;;;;5.25;4.53;;;;;;;9.13;55.41;96441.06;4946372;29;20937;-62
2022/12/31 08:15:38;;;;;;;6.57;5.83;;;;;;;9.39;55.34;96434.06;4951098;29;20231;-61
2022/12/31 08:18:06;;;;;;;7.13;6.40;;;;;;;9.20;55.23;96435.78;4952774;29;20456;-63
2022/12/31 08:20:39;;;;;;;7.30;6.03;;;;;;;9.66;55.00;96430.28;4952324;29;20455;-62
2022/12/31 08:23:35;;;;;;;13.23;9.53;;;;;;;9.98;55.08;96437.09;4952692;29;20525;-62
2022/12/31 08:26:20;;;;;;;18.00;8.50;;;;;;;10.10;54.71;96432.78;4944953;29;20512;-62
2022/12/31 08:29:43;;;;;;;10.93;6.90;;;;;;;9.87;54.65;96433.34;4952026;29;20454;-63
2022/12/31 08:32:21;;;;;;;11.07;5.90;;;;;;;10.07;54.13;96433.19;4923066;29;20443;-63
2022/12/31 08:35:18;;;;;;;12.37;7.03;;;;;;;10.20;53.82;96430.47;4952496;29;20451;-63
2022/12/31 08:38:19;;;;;;;20.77;10.30;;;;;;;10.39;53.15;96437.34;4952280;29;20510;-63
2022/12/31 08:41:07;;;;;;;9.20;6.57;;;;;;;10.50;53.09;96439.28;4941752;29;20460;-63
2022/12/31 08:43:36;;;;;;;23.43;7.93;;;;;;;10.52;52.50;96447.72;4951660;28;20530;-63
2022/12/31 08:46:14;;;;;;;5.10;4.67;;;;;;;10.72;52.43;96440.44;4952071;29;20540;-63
2022/12/31 08:48:42;;;;;;;9.90;7.27;;;;;;;11.19;51.49;96437.06;4945464;29;20949;-63
2022/12/31 08:51:17;;;;;;;10.83;7.20;;;;;;;11.33;50.54;96429.78;4952034;29;20559;-64
2022/12/31 08:53:44;;;;;;;5.83;5.23;;;;;;;11.86;49.69;96414.13;4952100;29;20840;-64
2022/12/31 08:56:29;;;;;;;7.33;5.07;;;;;;;12.15;49.45;96415.88;4951836;29;20547;-64
2022/12/31 08:58:56;;;;;;;17.37;8.93;;;;;;;12.34;48.72;96419.97;4951569;29;20982;-63
2022/12/31 09:01:32;;;;;;;8.20;5.83;;;;;;;12.50;48.08;96403.50;4951468;29;20487;-62
2022/12/31 09:04:27;;;;;;;9.37;6.10;;;;;;;12.80;48.36;96406.78;4951220;29;20502;-64
2022/12/31 09:07:01;;;;;;;7.83;5.17;;;;;;;12.72;47.97;96401.06;4951556;29;20453;-64
2022/12/31 09:09:39;;;;;;;6.47;3.70;;;;;;;12.57;47.40;96401.56;4952510;29;20580;-64
2022/12/31 09:12:23;;;;;;;4.63;2.67;;;;;;;12.78;47.67;96408.03;4951602;29;20564;-64
2022/12/31 09:15:14;;;;;;;8.00;4.87;;;;;;;12.99;46.91;96415.34;4944574;29;20915;-64
2022/12/31 09:17:43;;;;;;;2.40;2.20;;;;;;;13.07;46.91;96407.91;4940083;29;20978;-65
2022/12/31 09:20:25;;;;;;;5.20;3.57;;;;;;;13.20;46.22;96394.47;4947373;29;20455;-65
2022/12/31 09:23:07;;;;;;;2.90;2.70;;;;;;;13.36;46.10;96407.91;4943744;29;20476;-64
2022/12/31 09:25:43;;;;;;;5.50;4.60;;;;;;;13.86;45.48;96399.03;4947769;29;20533;-66
2022/12/31 09:28:47;;;;;;;1.97;1.87;;;;;;;13.99;45.38;96396.09;4949212;29;20465;-65
2022/12/31 09:31:23;;;;;;;13.60;6.97;;;;;;;13.92;45.10;96390.16;4945262;29;20447;-63
2022/12/31 09:34:00;;;;;;;8.57;6.50;;;;;;;13.72;45.99;96383.78;4941791;29;20454;-62
2022/12/31 09:36:33;;;;;;;12.10;4.03;;;;;;;13.42;47.32;96383.25;4948869;29;20970;-67
2022/12/31 09:39:09;;;;;;;7.70;5.07;;;;;;;13.63;46.34;96377.31;4944450;29;21070;-62
2022/12/31 09:42:24;;;;;;;7.00;5.13;;;;;;;13.90;45.58;96375.66;4941738;29;20494;-63
2022/12/31 09:45:12;;;;;;;15.53;5.47;;;;;;;13.94;43.98;96360.97;4846912;29;20977;-64
2022/12/31 09:47:57;;;;;;;4.43;3.50;;;;;;;14.37;44.38;96360.28;4921368;29;20515;-64
2022/12/31 09:50:52;;;;;;;4.60;1.87;;;;;;;14.19;44.02;96354.22;4928395;29;20448;-64
2022/12/31 09:53:38;;;;;;;15.17;3.00;;;;;;;14.26;43.65;96351.41;4921521;29;20842;-65
2022/12/31 09:56:14;;;;;;;8.77;7.67;;;;;;;14.63;43.38;96349.84;4925129;29;20479;-63
2022/12/31 09:58:50;;;;;;;2.03;1.90;;;;;;;14.54;43.89;96345.22;4925447;29;20448;-65
2022/12/31 10:01:41;;;;;;;2.07;1.43;;;;;;;14.14;44.26;96348.09;4921807;29;20444;-63
2022/12/31 10:04:18;;;;;;;3.00;2.67;;;;;;;14.44;43.41;96337.97;4927470;29;21078;-63
2022/12/31 10:07:10;;;;;;;4.60;2.00;;;;;;;14.75;42.70;96334.66;4918740;29;20436;-63
2022/12/31 10:10:04;;;;;;;2.73;2.50;;;;;;;14.85;43.08;96331.34;4921643;29;20444;-64
2022/12/31 10:13:02;;;;;;;0.43;0.43;;;;;;;14.57;42.83;96331.53;4926276;29;21335;-63
2022/12/31 10:15:59;;;;;;;0.83;0.83;;;;;;;14.74;42.93;96333.09;4928349;29;21335;-65
2022/12/31 10:18:46;;;;;;;2.93;2.23;;;;;;;13.85;42.65;96336.81;4905898;29;20488;-63
2022/12/31 10:21:15;;;;;;;7.70;2.67;;;;;;;13.46;43.30;96331.72;4921067;29;20824;-63
2022/12/31 10:24:23;;;;;;;1.80;1.17;;;;;;;13.29;44.28;96325.63;4928060;29;20901;-62
2022/12/31 10:27:08;;;;;;;1.73;1.63;;;;;;;13.77;44.90;96312.72;4927285;29;20475;-63
2022/12/31 10:29:55;;;;;;;1.87;1.50;;;;;;;13.64;43.81;96311.22;4928080;29;21019;-64
2022/12/31 10:32:40;;;;;;;2.00;1.90;;;;;;;13.96;43.31;96316.69;4927943;29;20452;-63
2022/12/31 10:35:49;;;;;;;0.90;0.90;;;;;;;14.12;43.76;96305.34;4929668;29;20440;-63
2022/12/31 10:38:31;;;;;;;0.30;0.30;;;;;;;14.10;43.02;96304.78;4892494;29;20960;-64
2022/12/31 10:41:36;;;;;;;0.80;0.80;;;;;;;14.24;43.27;96303.38;4924435;29;20448;-64
2022/12/31 10:44:45;;;;;;;0.80;0.80;;;;;;;14.36;43.67;96301.47;4926006;29;20917;-64
2022/12/31 10:47:48;;;;;;;1.60;1.50;;;;;;;14.36;42.27;96298.81;4947886;29;20508;-63
2022/12/31 10:50:27;;;;;;;0.87;0.87;;;;;;;14.44;42.34;96298.41;4943207;29;20982;-64
2022/12/31 10:53:17;;;;;;;0.30;0.30;;;;;;;14.31;42.90;96288.22;4945642;29;20536;-63
2022/12/31 10:56:14;;;;;;;0.87;0.87;;;;;;;14.54;42.88;96279.28;4942266;29;20452;-63
2022/12/31 10:58:44;;;;;;;0.97;0.97;;;;;;;14.74;42.79;96282.94;4941869;29;20444;-65
2022/12/31 11:01:26;;;;;;;2.00;1.80;;;;;;;14.29;42.19;96290.28;4945164;29;20530;-65
2022/12/31 11:04:01;;;;;;;0.60;0.60;;;;;;;14.37;42.16;96289.88;4940245;29;20566;-63
2022/12/31 11:07:06;;;;;;;2.20;2.10;;;;;;;14.28;42.79;96296.63;4948752;28;20447;-62
2022/12/31 11:10:02;;;;;;;1.23;1.13;;;;;;;14.52;42.35;96295.34;4944045;29;20962;-63
2022/12/31 11:13:06;;;;;;;2.27;2.07;;;;;;;14.15;42.98;96289.03;4951215;29;20910;-64
2022/12/31 11:16:01;;;;;;;0.60;0.60;;;;;;;14.17;43.64;96279.84;4940719;29;20969;-64
2022/12/31 11:19:03;;;;;;;0.93;0.83;;;;;;;14.42;42.88;96279.38;4946888;29;20506;-63
2022/12/31 11:21:47;;;;;;;5.00;1.17;;;;;;;14.19;43.80;96274.34;4949412;29;20517;-63
2022/12/31 11:24:55;;;;;;;1.60;1.50;;;;;;;14.43;44.41;96259.91;4948701;29;20908;-67
2022/12/31 11:27:48;;;;;;;12.20;8.83;;;;;;;14.75;43.71;96257.34;4917206;29;20498;-63
2022/12/31 11:30:31;;;;;;;4.10;3.27;;;;;;;14.70;42.35;96263.38;4944114;29;21000;-63
2022/12/31 11:33:20;;;;;;;1.07;0.87;;;;;;;14.83;42.97;96265.63;4949112;29;21006;-63
2022/12/31 11:36:11;;;;;;;2.37;1.43;;;;;;;14.81;43.32;96261.63;4946911;29;20856;-62
2022/12/31 11:39:00;;;;;;;0.93;0.93;;;;;;;14.78;43.11;96255.00;4941994;29;20448;-63
2022/12/31 11:41:30;;;;;;;5.60;2.27;;;;;;;15.05;42.29;96253.16;4947787;29;20481;-64
2022/12/31 11:44:00;;;;;;;1.17;0.80;;;;;;;14.79;42.07;96250.53;4948935;29;20471;-62
2022/12/31 11:46:57;;;;;;;1.70;1.60;;;;;;;15.17;41.80;96245.09;4951472;29;20543;-63
2022/12/31 11:49:46;;;;;;;0.90;0.90;;;;;;;15.16;43.32;96244.28;4947239;29;20439;-63
2022/12/31 11:52:16;;;;;;;2.67;2.10;;;;;;;15.41;41.79;96243.75;4946015;29;20475;-62
2022/12/31 11:55:30;;;;;;;0.70;0.70;;;;;;;15.74;40.87;96224.97;4948303;29;20975;-63
2022/12/31 11:58:08;;;;;;;0.87;0.87;;;;;;;16.69;39.76;96227.25;4949201;29;20483;-63
2022/12/31 12:00:37;;;;;;;1.60;1.50;;;;;;;17.62;38.09;96225.22;4946521;29;20527;-62
2022/12/31 12:03:06;;;;;;;2.50;1.80;;;;;;;18.73;37.50;96225.69;4929218;29;20447;-65
2022/12/31 12:05:34;;;;;;;1.47;1.37;;;;;;;18.80;36.12;96226.97;4945430;29;20521;-65
2022/12/31 12:08:01;;;;;;;4.43;3.93;;;;;;;19.03;36.66;96236.94;4945323;29;20444;-63
2022/12/31 12:10:34;;;;;;;4.87;4.40;;;;;;;20.15;33.49;96232.28;4948152;29;20842;-63
2022/12/31 12:13:18;;;;;;;3.90;3.50;;;;;;;20.89;32.46;96221.00;4949856;29;20453;-65
2022/12/31 12:15:57;;;;;;;1.93;1.83;;;;;;;21.27;32.72;96237.78;4952620;29;20506;-61
2022/12/31 12:18:32;;;;;;;1.57;1.17;;;;;;;22.57;31.33;96227.50;4952129;28;20196;-64
2022/12/31 12:21:05;;;;;;;2.50;2.17;;;;;;;22.74;30.81;96229.56;4952547;29;20208;-61
2022/12/31 12:23:31;;;;;;;1.60;1.50;;;;;;;23.39;31.01;96219.31;4952458;29;20285;-64
2022/12/31 12:25:58;;;;;;;1.70;1.47;;;;;;;23.02;31.03;96226.53;4952251;29;20247;-64
2022/12/31 12:28:28;;;;;;;1.40;1.10;;;;;;;22.79;30.78;96227.56;4952102;29;20203;-67
2022/12/31 12:30:57;;;;;;;2.03;1.80;;;;;;;21.08;31.29;96225.28;4952739;29;20576;-72
2022/12/31 12:33:25;;;;;;;1.70;1.60;;;;;;;20.15;33.35;96240.25;4952107;29;20206;-65